createdAt,value
2022-09-05T00:00:40.468Z,50.43
2022-09-05T00:01:40.393Z,50.11
2022-09-05T00:02:41.855Z,49.95
2022-09-05T00:03:41.945Z,50.76
2022-09-05T00:04:40.469Z,49.63
2022-09-05T00:05:44.270Z,49.63
2022-09-05T00:06:41.417Z,49.63
2022-09-05T00:07:59.163Z,50.43
2022-09-05T00:08:41.380Z,50.27
2022-09-05T00:09:40.404Z,51.24
2022-09-05T00:11:08.545Z,50.92
2022-09-05T00:11:43.891Z,50.92
2022-09-05T00:12:41.359Z,49.47
2022-09-05T00:13:40.435Z,50.11
2022-09-05T00:15:16.647Z,49.79
2022-09-05T00:15:41.441Z,50.60
2022-09-05T00:16:40.418Z,50.43
2022-09-05T00:19:05.231Z,51.40
2022-09-05T00:24:18.692Z,51.08
2022-09-05T00:24:19.420Z,50.76
2022-09-05T00:24:25.378Z,51.24
2022-09-05T00:24:25.765Z,49.95
2022-09-05T00:24:25.995Z,50.11
2022-09-05T00:24:27.147Z,51.56
2022-09-05T00:25:00.962Z,51.24
2022-09-05T00:25:42.325Z,50.92
2022-09-05T00:26:43.891Z,50.27
2022-09-05T00:27:41.337Z,50.27
2022-09-05T00:28:41.325Z,51.40
2022-09-05T00:31:02.485Z,51.08
2022-09-05T00:31:50.995Z,50.43
2022-09-05T00:31:55.384Z,50.76
2022-09-05T00:32:41.289Z,51.08
2022-09-05T00:33:40.184Z,51.56
2022-09-05T00:34:47.225Z,51.24
2022-09-05T00:35:41.411Z,50.43
2022-09-05T00:36:40.209Z,50.76
2022-09-05T00:37:40.168Z,50.27
2022-09-05T00:38:40.307Z,49.63
2022-09-05T00:39:40.654Z,49.31
2022-09-05T00:40:41.139Z,49.63
2022-09-05T00:41:40.301Z,50.92
2022-09-05T00:42:40.274Z,51.08
2022-09-05T00:43:40.600Z,50.92
2022-09-05T00:44:40.208Z,50.60
2022-09-05T00:45:40.220Z,51.40
2022-09-05T00:46:41.190Z,50.92
2022-09-05T00:47:40.232Z,50.92
2022-09-05T00:48:41.163Z,50.76
2022-09-05T00:49:41.100Z,50.11
2022-09-05T00:50:41.209Z,51.24
2022-09-05T00:51:40.134Z,50.76
2022-09-05T00:52:40.148Z,51.40
2022-09-05T00:53:40.236Z,51.08
2022-09-05T00:54:41.168Z,50.92
2022-09-05T00:55:40.035Z,52.53
2022-09-05T00:56:40.044Z,51.24
2022-09-05T00:57:40.057Z,51.08
2022-09-05T00:58:40.019Z,52.37
2022-09-05T00:59:40.091Z,51.08
2022-09-05T01:00:40.019Z,50.76
2022-09-05T01:01:40.136Z,50.60
2022-09-05T01:02:48.452Z,51.72
2022-09-05T01:03:40.986Z,51.40
2022-09-05T01:04:39.965Z,50.11
2022-09-05T01:05:40.030Z,49.95
2022-09-05T01:06:40.071Z,50.76
2022-09-05T01:07:42.791Z,50.92
2022-09-05T01:08:40.979Z,51.88
2022-09-05T01:09:40.048Z,50.11
2022-09-05T01:10:40.068Z,50.43
2022-09-05T01:11:40.049Z,50.43
2022-09-05T01:12:40.060Z,51.24
2022-09-05T01:13:40.073Z,52.05
2022-09-05T01:14:40.033Z,51.08
2022-09-05T01:15:40.091Z,52.21
2022-09-05T01:16:40.052Z,51.24
2022-09-05T01:17:41.007Z,50.60
2022-09-05T01:18:39.994Z,51.24
2022-09-05T01:19:39.982Z,50.92
2022-09-05T01:20:39.950Z,50.43
2022-09-05T01:21:40.784Z,50.43
2022-09-05T01:22:40.906Z,51.40
2022-09-05T01:23:39.880Z,51.08
2022-09-05T01:24:40.728Z,50.92
2022-09-05T01:25:40.404Z,53.98
2022-09-05T01:26:40.867Z,52.53
2022-09-05T01:28:23.635Z,53.33
2022-09-05T01:29:13.919Z,52.53
2022-09-05T01:29:40.873Z,51.56
2022-09-05T01:30:39.865Z,50.43
2022-09-05T01:31:39.860Z,52.53
2022-09-05T01:32:39.849Z,52.53
2022-09-05T01:33:39.909Z,50.92
2022-09-05T01:34:39.896Z,49.95
2022-09-05T01:35:39.904Z,53.50
2022-09-05T01:36:39.853Z,51.56
2022-09-05T01:37:39.871Z,50.11
2022-09-05T01:38:39.824Z,51.24
2022-09-05T01:40:14.413Z,51.40
2022-09-05T01:40:40.762Z,50.76
2022-09-05T01:41:39.808Z,50.76
2022-09-05T01:42:39.792Z,50.43
2022-09-05T01:43:39.813Z,50.27
2022-09-05T01:44:39.809Z,50.60
2022-09-05T01:45:40.104Z,52.05
2022-09-05T01:46:39.757Z,51.88
2022-09-05T01:47:39.677Z,52.21
2022-09-05T01:48:39.682Z,52.53
2022-09-05T01:49:39.654Z,52.37
2022-09-05T01:50:39.765Z,51.24
2022-09-05T01:51:39.641Z,52.21
2022-09-05T01:52:45.052Z,50.60
2022-09-05T01:53:40.675Z,50.76
2022-09-05T01:54:39.723Z,51.88
2022-09-05T01:56:04.619Z,51.08
2022-09-05T01:56:40.643Z,51.08
2022-09-05T01:57:39.704Z,51.24
2022-09-05T01:58:39.734Z,51.40
2022-09-05T01:59:39.687Z,51.40
2022-09-05T02:00:39.749Z,51.72
2022-09-05T02:01:39.734Z,51.40
2022-09-05T02:02:39.773Z,51.24
2022-09-05T02:03:39.655Z,53.01
2022-09-05T02:04:39.649Z,52.05
2022-09-05T02:05:48.445Z,52.85
2022-09-05T02:06:41.855Z,51.72
2022-09-05T02:07:39.617Z,53.82
2022-09-05T02:08:39.627Z,52.69
2022-09-05T02:09:40.063Z,51.40
2022-09-05T02:10:39.544Z,52.53
2022-09-05T02:11:39.589Z,53.82
2022-09-05T02:12:39.534Z,53.01
2022-09-05T02:13:39.503Z,52.85
2022-09-05T02:14:39.489Z,52.53
2022-09-05T02:15:39.536Z,52.05
2022-09-05T02:16:39.534Z,51.72
2022-09-05T02:17:51.055Z,52.85
2022-09-05T02:18:40.488Z,53.98
2022-09-05T02:19:39.439Z,52.69
2022-09-05T02:20:39.458Z,52.53
2022-09-05T02:21:56.626Z,52.05
2022-09-05T02:22:40.445Z,53.01
2022-09-05T02:23:41.733Z,53.01
2022-09-05T02:24:39.442Z,51.88
2022-09-05T02:26:02.548Z,53.82
2022-09-05T02:26:40.430Z,53.66
2022-09-05T02:28:05.678Z,51.40
2022-09-05T02:28:40.400Z,51.56
2022-09-05T02:29:39.472Z,52.05
2022-09-05T02:30:47.444Z,52.53
2022-09-05T02:31:40.428Z,52.53
2022-09-05T02:32:43.077Z,53.17
2022-09-05T02:33:40.441Z,52.53
2022-09-05T02:34:39.434Z,51.40
2022-09-05T02:35:39.424Z,54.30
2022-09-05T02:36:39.426Z,54.46
2022-09-05T02:38:35.099Z,56.56
2022-09-05T02:40:59.890Z,54.62
2022-09-05T02:42:40.494Z,54.62
2022-09-05T02:45:02.776Z,53.66
2022-09-05T02:45:07.733Z,53.17
2022-09-05T02:45:11.902Z,56.07
2022-09-05T02:45:14.354Z,53.50
2022-09-05T02:45:17.179Z,54.95
2022-09-05T02:45:40.335Z,56.24
2022-09-05T02:46:39.360Z,56.72
2022-09-05T02:47:39.286Z,53.98
2022-09-05T02:48:39.281Z,53.50
2022-09-05T02:53:12.223Z,56.72
2022-09-05T02:54:03.422Z,52.69
2022-09-05T02:57:28.215Z,53.33
2022-09-05T02:57:33.269Z,54.14
2022-09-05T02:57:37.222Z,56.56
2022-09-05T02:57:38.341Z,52.53
2022-09-05T02:57:40.980Z,55.91
2022-09-05T02:57:43.272Z,54.95
2022-09-05T02:58:05.801Z,53.50
2022-09-05T02:59:08.164Z,54.95
2022-09-05T02:59:41.204Z,52.85
2022-09-05T03:00:39.173Z,54.14
2022-09-05T03:01:40.025Z,54.95
2022-09-05T03:02:39.307Z,53.66
2022-09-05T03:03:39.463Z,54.46
2022-09-05T03:04:39.265Z,52.53
2022-09-05T03:05:39.238Z,51.88
2022-09-05T03:06:39.626Z,51.88
2022-09-05T03:07:39.266Z,53.66
2022-09-05T03:08:39.237Z,55.75
2022-09-05T03:09:39.305Z,57.36
2022-09-05T03:10:53.485Z,57.69
2022-09-05T03:11:40.133Z,58.97
2022-09-05T03:12:39.171Z,53.98
2022-09-05T03:13:48.782Z,55.75
2022-09-05T03:14:40.151Z,56.24
2022-09-05T03:15:39.157Z,56.07
2022-09-05T03:16:47.072Z,57.04
2022-09-05T03:17:40.178Z,57.36
2022-09-05T03:18:39.176Z,56.07
2022-09-05T03:19:46.235Z,54.62
2022-09-05T03:20:40.134Z,57.04
2022-09-05T03:21:39.107Z,58.17
2022-09-05T03:22:39.112Z,57.52
2022-09-05T03:23:39.129Z,57.69
2022-09-05T03:24:39.117Z,58.01
2022-09-05T03:25:39.173Z,57.52
2022-09-05T03:26:39.077Z,57.52
2022-09-05T03:27:38.980Z,58.81
2022-09-05T03:28:38.973Z,56.88
2022-09-05T03:29:39.008Z,55.43
2022-09-05T03:30:39.051Z,58.17
2022-09-05T03:31:38.941Z,58.65
2022-09-05T03:32:40.303Z,56.88
2022-09-05T03:33:38.960Z,55.11
2022-09-05T03:34:38.939Z,55.59
2022-09-05T03:35:38.975Z,56.40
2022-09-05T03:36:38.936Z,57.69
2022-09-05T03:37:38.921Z,57.52
2022-09-05T03:38:39.018Z,57.85
2022-09-05T03:39:39.045Z,58.65
2022-09-05T03:40:39.027Z,58.97
2022-09-05T03:41:40.727Z,59.78
2022-09-05T03:42:38.993Z,56.72
2022-09-05T03:43:38.947Z,58.65
2022-09-05T03:44:38.972Z,59.78
2022-09-05T03:45:38.968Z,57.04
2022-09-05T03:46:38.997Z,57.20
2022-09-05T03:47:39.645Z,58.65
2022-09-05T03:48:39.024Z,58.01
2022-09-05T03:52:19.974Z,55.91
2022-09-05T03:52:58.424Z,57.36
2022-09-05T03:54:39.901Z,58.65
2022-09-05T03:57:05.076Z,59.46
2022-09-05T03:57:10.483Z,57.36
2022-09-05T03:57:14.133Z,56.72
2022-09-05T03:57:14.631Z,57.69
2022-09-05T03:57:22.993Z,59.30
2022-09-05T03:57:42.684Z,59.14
2022-09-05T03:58:56.443Z,59.30
2022-09-05T03:59:40.797Z,57.69
2022-09-05T04:00:38.773Z,58.33
2022-09-05T04:03:17.869Z,57.04
2022-09-05T04:07:06.314Z,57.69
2022-09-05T04:08:07.675Z,58.01
2022-09-05T04:08:15.723Z,58.65
2022-09-05T04:08:18.709Z,56.56
2022-09-05T04:08:29.747Z,58.33
2022-09-05T04:08:31.608Z,59.62
2022-09-05T04:08:43.020Z,59.78
2022-09-05T04:09:50.514Z,58.01
2022-09-05T04:10:40.826Z,56.88
2022-09-05T04:11:38.772Z,56.24
2022-09-05T04:12:38.796Z,55.43
2022-09-05T04:13:38.770Z,57.20
2022-09-05T04:14:38.781Z,57.20
2022-09-05T04:15:38.771Z,57.04
2022-09-05T04:16:38.862Z,57.20
2022-09-05T04:17:38.819Z,57.52
2022-09-05T04:18:38.789Z,56.88
2022-09-05T04:19:38.734Z,57.20
2022-09-05T04:20:40.593Z,56.88
2022-09-05T04:21:39.711Z,58.17
2022-09-05T04:22:38.637Z,57.69
2022-09-05T04:23:38.615Z,56.40
2022-09-05T04:24:39.577Z,57.85
2022-09-05T04:25:38.630Z,59.46
2022-09-05T04:26:38.667Z,58.65
2022-09-05T04:27:38.552Z,57.52
2022-09-05T04:28:41.285Z,57.52
2022-09-05T04:29:38.566Z,57.36
2022-09-05T04:30:40.448Z,56.72
2022-09-05T04:31:38.653Z,57.52
2022-09-05T04:32:38.603Z,56.88
2022-09-05T04:33:38.640Z,58.49
2022-09-05T04:34:38.602Z,58.65
2022-09-05T04:35:38.628Z,59.14
2022-09-05T04:36:38.632Z,60.26
2022-09-05T04:37:48.394Z,59.14
2022-09-05T04:38:39.544Z,57.69
2022-09-05T04:39:38.638Z,58.49
2022-09-05T04:40:38.547Z,59.30
2022-09-05T04:41:39.855Z,59.14
2022-09-05T04:42:38.526Z,59.62
2022-09-05T04:43:38.587Z,57.69
2022-09-05T04:44:38.537Z,58.49
2022-09-05T04:45:39.586Z,58.97
2022-09-05T04:46:47.395Z,60.75
2022-09-05T04:47:39.461Z,60.42
2022-09-05T04:48:38.419Z,59.14
2022-09-05T04:49:38.427Z,59.14
2022-09-05T04:50:38.421Z,58.49
2022-09-05T04:51:38.425Z,58.33
2022-09-05T04:52:38.478Z,57.69
2022-09-05T04:53:38.485Z,58.17
2022-09-05T04:54:38.521Z,58.17
2022-09-05T04:55:38.462Z,58.97
2022-09-05T04:56:38.400Z,58.01
2022-09-05T04:57:38.484Z,57.52
2022-09-05T04:59:38.950Z,57.20
2022-09-05T05:02:16.425Z,57.52
2022-09-05T05:06:00.542Z,57.52
2022-09-05T05:06:08.550Z,60.26
2022-09-05T05:06:10.498Z,58.17
2022-09-05T05:06:11.537Z,60.59
2022-09-05T05:06:13.103Z,59.94
2022-09-05T05:06:18.911Z,59.30
2022-09-05T05:06:46.047Z,59.78
2022-09-05T05:07:40.503Z,59.30
2022-09-05T05:08:39.596Z,59.14
2022-09-05T05:09:38.294Z,58.97
2022-09-05T05:14:17.547Z,59.30
2022-09-05T05:17:59.704Z,59.14
2022-09-05T05:18:03.805Z,59.78
2022-09-05T05:18:07.466Z,59.30
2022-09-05T05:18:07.630Z,60.26
2022-09-05T05:18:09.767Z,58.49
2022-09-05T05:18:13.105Z,57.52
2022-09-05T05:18:15.974Z,59.46
2022-09-05T05:18:53.245Z,58.97
2022-09-05T05:19:40.239Z,60.59
2022-09-05T05:20:42.607Z,60.10
2022-09-05T05:21:39.383Z,58.33
2022-09-05T05:22:38.298Z,57.69
2022-09-05T05:23:38.336Z,57.85
2022-09-05T05:24:38.317Z,62.20
2022-09-05T05:25:38.356Z,59.46
2022-09-05T05:26:38.337Z,60.75
2022-09-05T05:27:38.348Z,59.62
2022-09-05T05:28:38.296Z,58.49
2022-09-05T05:29:38.241Z,58.17
2022-09-05T05:30:38.222Z,58.01
2022-09-05T05:31:38.191Z,58.65
2022-09-05T05:32:45.134Z,57.85
2022-09-05T05:33:39.173Z,58.65
2022-09-05T05:34:38.112Z,58.01
2022-09-05T05:35:44.601Z,58.17
2022-09-05T05:36:39.107Z,58.33
2022-09-05T05:37:38.095Z,57.69
2022-09-05T05:38:38.206Z,59.62
2022-09-05T05:39:38.242Z,58.33
2022-09-05T05:40:38.245Z,58.65
2022-09-05T05:41:39.067Z,57.69
2022-09-05T05:42:38.226Z,57.20
2022-09-05T05:43:39.366Z,57.85
2022-09-05T05:44:38.200Z,57.20
2022-09-05T07:18:10.480Z,49.63
2022-09-05T07:19:03.385Z,49.79
2022-09-05T07:20:01.826Z,50.43
2022-09-05T07:21:17.766Z,53.50
2022-09-05T07:22:01.734Z,50.11
2022-09-05T07:23:47.717Z,50.27
2022-09-05T07:24:08.689Z,49.95
2022-09-05T07:25:01.762Z,52.53
2022-09-05T07:26:00.787Z,51.24
2022-09-05T07:27:00.676Z,54.62
2022-09-05T07:28:23.552Z,51.24
2022-09-05T07:29:01.587Z,52.37
2022-09-05T07:30:01.985Z,53.66
2022-09-05T07:31:00.639Z,49.63
2022-09-05T07:32:00.726Z,54.14
2022-09-05T07:33:00.566Z,51.40
2022-09-05T07:34:00.593Z,48.82
2022-09-05T07:35:00.575Z,52.21
2022-09-05T07:36:00.582Z,50.43
2022-09-05T07:37:14.316Z,49.47
2022-09-05T07:38:01.568Z,50.27
2022-09-05T07:39:25.139Z,52.53
2022-09-05T07:40:25.021Z,51.40
2022-09-05T07:41:01.578Z,48.02
2022-09-05T07:42:00.692Z,52.37
2022-09-05T07:43:09.848Z,49.47
2022-09-05T07:44:01.514Z,48.66
2022-09-05T07:45:00.657Z,48.34
2022-09-05T07:46:00.643Z,50.76
2022-09-05T07:47:00.587Z,52.21
2022-09-05T07:48:00.624Z,50.60
2022-09-05T07:49:00.585Z,49.47
2022-09-05T07:53:00.540Z,49.31
2022-09-05T07:56:46.111Z,49.95
2022-09-05T07:56:56.233Z,51.24
2022-09-05T07:57:01.326Z,49.15
2022-09-05T07:57:03.980Z,47.37
2022-09-05T07:57:04.916Z,48.34
2022-09-05T07:57:10.576Z,50.43
2022-09-05T07:58:02.656Z,51.08
2022-09-05T07:59:00.418Z,49.15
2022-09-05T08:00:00.372Z,48.02
2022-09-05T08:01:00.459Z,50.92
2022-09-05T08:02:00.372Z,53.01
2022-09-05T08:03:00.868Z,49.47
2022-09-05T08:04:05.535Z,49.63
2022-09-05T08:05:01.426Z,46.41
2022-09-05T08:06:00.345Z,49.79
2022-09-05T08:07:46.139Z,46.89
2022-09-05T08:08:01.404Z,48.02
2022-09-05T08:09:21.591Z,49.79
2022-09-05T08:10:09.220Z,53.33
2022-09-05T08:11:23.967Z,58.17
2022-09-05T08:12:09.563Z,62.52
2022-09-05T08:13:24.120Z,55.11
2022-09-05T08:14:38.346Z,51.72
2022-09-05T08:15:01.265Z,49.95
2022-09-05T08:16:10.977Z,50.76
2022-09-05T08:17:01.328Z,49.15
2022-09-05T08:18:00.500Z,49.15
2022-09-05T08:19:00.404Z,47.70
2022-09-05T08:20:08.287Z,45.60
2022-09-05T08:21:01.343Z,50.27
2022-09-05T08:22:01.705Z,49.15
2022-09-05T08:23:00.332Z,50.60
2022-09-05T08:24:00.600Z,47.70
2022-09-05T08:25:01.377Z,47.21
2022-09-05T08:26:00.362Z,49.63
2022-09-05T08:27:00.301Z,48.82
2022-09-05T08:28:00.265Z,48.02
2022-09-05T08:29:00.197Z,47.37
2022-09-05T08:30:26.945Z,49.79
2022-09-05T08:31:01.372Z,45.12
2022-09-05T08:32:00.288Z,45.60
2022-09-05T08:33:11.134Z,45.60
2022-09-05T08:34:01.152Z,49.63
2022-09-05T08:35:00.180Z,46.41
2022-09-05T08:36:01.223Z,44.96
2022-09-05T08:37:00.128Z,46.73
2022-09-05T08:38:00.248Z,45.12
2022-09-05T08:39:00.301Z,45.60
2022-09-05T08:40:11.722Z,47.53
2022-09-05T08:41:01.113Z,48.66
2022-09-05T08:42:05.854Z,48.34
2022-09-05T08:46:10.159Z,46.41
2022-09-05T08:46:40.231Z,45.60
2022-09-05T08:46:41.511Z,47.53
2022-09-05T08:46:46.800Z,47.70
2022-09-05T08:47:01.548Z,45.76
2022-09-05T08:48:00.237Z,46.25
2022-09-05T08:49:02.113Z,47.86
2022-09-05T08:50:01.175Z,45.92
2022-09-05T08:51:00.189Z,46.73
2022-09-05T08:52:00.028Z,46.57
2022-09-05T08:53:00.140Z,48.66
2022-09-05T08:54:00.146Z,48.50
2022-09-05T08:55:04.363Z,49.47
2022-09-05T08:56:02.174Z,47.53
2022-09-05T08:57:00.129Z,45.92
2022-09-05T08:58:00.132Z,48.66
2022-09-05T08:59:31.546Z,48.82
2022-09-05T09:00:19.776Z,47.05
2022-09-05T09:01:04.544Z,46.41
2022-09-05T09:02:46.185Z,46.57
2022-09-05T09:03:03.953Z,46.89
2022-09-05T09:03:59.930Z,48.98
2022-09-05T09:05:02.346Z,46.73
2022-09-05T09:06:13.501Z,47.21
2022-09-05T09:07:47.554Z,46.73
2022-09-05T09:08:00.888Z,46.57
2022-09-05T09:09:05.161Z,46.73
2022-09-05T09:10:01.925Z,48.02
2022-09-05T09:10:59.890Z,47.05
2022-09-05T09:11:59.977Z,48.82
2022-09-05T09:13:00.042Z,47.05
2022-09-05T09:13:59.976Z,48.66
2022-09-05T09:14:59.987Z,47.37
2022-09-05T09:15:59.979Z,46.08
2022-09-05T09:17:00.015Z,46.41
2022-09-05T09:17:59.948Z,48.50
2022-09-05T09:19:00.961Z,47.21
2022-09-05T09:19:59.949Z,45.28
2022-09-05T09:21:00.275Z,45.60
2022-09-05T09:21:59.938Z,44.31
2022-09-05T09:22:59.994Z,45.44
2022-09-05T09:23:59.903Z,46.08
2022-09-05T09:25:15.123Z,46.57
2022-09-05T09:26:00.926Z,46.57
2022-09-05T09:27:00.069Z,45.76
2022-09-05T09:28:48.073Z,48.18
2022-09-05T09:29:00.751Z,49.15
2022-09-05T09:29:59.743Z,47.70
2022-09-05T09:30:59.881Z,46.57
2022-09-05T09:32:00.046Z,49.31
2022-09-05T09:32:59.910Z,46.08
2022-09-05T09:33:59.727Z,46.89
2022-09-05T09:34:59.863Z,46.41
2022-09-05T09:35:59.758Z,45.28
2022-09-05T09:37:00.715Z,46.25
2022-09-05T09:37:59.912Z,46.57
2022-09-05T09:39:21.603Z,43.67
2022-09-05T09:40:00.881Z,44.79
2022-09-05T09:41:02.191Z,44.47
2022-09-05T09:41:59.779Z,45.60
2022-09-05T09:42:59.765Z,45.28
2022-09-05T09:43:59.816Z,44.47
2022-09-05T09:44:59.745Z,44.47
2022-09-05T09:46:00.705Z,44.15
2022-09-05T09:47:00.288Z,45.60
2022-09-05T09:47:59.781Z,45.60
2022-09-05T09:48:59.793Z,46.08
2022-09-05T09:49:59.837Z,45.12
2022-09-05T09:51:00.676Z,43.83
2022-09-05T09:52:00.739Z,43.34
2022-09-05T09:52:59.611Z,46.73
2022-09-05T09:53:59.575Z,43.34
2022-09-05T09:54:59.746Z,43.51
2022-09-05T09:55:59.591Z,43.83
2022-09-05T09:56:59.565Z,45.28
2022-09-05T09:57:59.552Z,42.38
2022-09-05T09:58:59.565Z,42.22
2022-09-05T09:59:59.703Z,45.92
2022-09-05T10:00:59.662Z,43.34
2022-09-05T10:02:12.877Z,42.70
2022-09-05T10:06:28.815Z,42.22
2022-09-05T10:10:34.682Z,44.15
2022-09-05T10:10:37.915Z,45.60
2022-09-05T10:10:39.121Z,43.18
2022-09-05T10:10:45.167Z,46.08
2022-09-05T10:10:47.754Z,45.12
2022-09-05T10:10:56.268Z,45.92
2022-09-05T10:11:00.445Z,44.63
2022-09-05T10:11:37.579Z,47.05
2022-09-05T10:12:02.430Z,44.63
2022-09-05T10:13:08.445Z,45.76
2022-09-05T10:14:00.580Z,46.73
2022-09-05T10:15:00.356Z,50.11
2022-09-05T10:16:00.944Z,44.79
2022-09-05T10:17:00.423Z,43.02
2022-09-05T10:17:59.420Z,43.99
2022-09-05T10:18:59.394Z,45.60
2022-09-05T10:20:09.477Z,43.83
2022-09-05T10:21:15.114Z,42.86
2022-09-05T10:23:01.383Z,46.08
2022-09-05T10:23:59.384Z,46.08
2022-09-05T10:24:59.471Z,45.60
2022-09-05T10:26:01.882Z,45.28
2022-09-05T10:27:00.535Z,45.28
2022-09-05T10:27:59.528Z,45.60
2022-09-05T10:29:11.780Z,48.82
2022-09-05T10:30:00.358Z,47.53
2022-09-05T10:33:10.500Z,45.28
2022-09-05T10:33:36.813Z,48.66
2022-09-05T10:35:09.189Z,42.54
2022-09-05T10:35:14.945Z,43.18
2022-09-05T10:35:19.762Z,44.96
2022-09-05T10:36:00.377Z,42.86
2022-09-05T10:36:59.356Z,41.41
2022-09-05T10:37:59.276Z,41.73
2022-09-05T10:38:59.389Z,45.28
2022-09-05T10:39:59.440Z,43.02
2022-09-05T10:41:21.642Z,43.18
2022-09-05T10:42:03.267Z,44.96
2022-09-05T10:43:01.439Z,45.44
2022-09-05T10:43:59.263Z,48.50
2022-09-05T10:44:59.365Z,43.34
2022-09-05T10:45:59.382Z,45.60
2022-09-05T10:46:59.441Z,45.60
2022-09-05T10:48:08.425Z,43.99
2022-09-05T10:49:00.221Z,44.96
2022-09-05T10:49:59.343Z,44.96
2022-09-05T10:50:59.682Z,43.18
2022-09-05T10:51:59.217Z,41.57
2022-09-05T10:53:00.193Z,40.44
2022-09-05T10:53:59.275Z,40.93
2022-09-05T10:55:14.962Z,40.93
2022-09-05T10:56:00.154Z,42.22
2022-09-05T10:56:59.323Z,41.89
2022-09-05T10:57:59.291Z,41.57
2022-09-05T11:00:45.808Z,40.93
2022-09-05T11:02:20.158Z,40.61
2022-09-05T11:02:22.750Z,40.77
2022-09-05T11:02:27.905Z,42.22
2022-09-05T11:03:00.160Z,40.93
2022-09-05T11:03:59.348Z,40.61
2022-09-05T11:04:59.223Z,40.61
2022-09-05T11:05:59.062Z,42.06
2022-09-05T11:07:00.090Z,41.41
2022-09-05T11:07:59.270Z,41.41
2022-09-05T11:08:59.095Z,40.93
2022-09-05T11:09:59.236Z,43.99
2022-09-05T11:10:59.261Z,42.70
2022-09-05T11:11:59.222Z,43.34
2022-09-05T11:12:59.221Z,41.57
2022-09-05T11:13:59.172Z,43.51
2022-09-05T11:14:59.220Z,41.25
2022-09-05T11:16:03.508Z,40.28
2022-09-05T11:17:00.343Z,41.73
2022-09-05T11:17:59.303Z,39.80
2022-09-05T11:18:59.397Z,39.96
2022-09-05T11:19:59.121Z,42.86
2022-09-05T11:20:59.102Z,40.61
2022-09-05T11:22:21.939Z,39.80
2022-09-05T11:23:00.292Z,41.89
2022-09-05T11:23:59.048Z,42.70
2022-09-05T11:24:59.269Z,42.86
2022-09-05T11:25:59.281Z,42.54
2022-09-05T11:27:25.518Z,40.61
2022-09-05T11:28:00.001Z,39.64
2022-09-05T11:29:00.814Z,40.93
2022-09-05T11:29:59.421Z,41.09
2022-09-05T11:30:59.196Z,42.22
2022-09-05T11:36:30.976Z,45.60
2022-09-05T11:39:08.702Z,40.12
2022-09-05T11:39:49.018Z,44.63
2022-09-05T11:39:50.663Z,43.18
2022-09-05T11:39:53.271Z,43.51
2022-09-05T11:39:53.716Z,45.44
2022-09-05T11:39:57.098Z,42.22
2022-09-05T11:40:10.748Z,45.44
2022-09-05T11:40:29.946Z,43.51
2022-09-05T11:41:08.225Z,43.18
2022-09-05T11:41:59.906Z,42.22
2022-09-05T11:42:58.882Z,41.73
2022-09-05T11:44:07.125Z,42.86
2022-09-05T11:44:59.965Z,41.73
2022-09-05T11:45:59.084Z,40.28
2022-09-05T11:46:59.032Z,41.09
2022-09-05T11:47:59.870Z,44.63
2022-09-05T11:48:59.058Z,39.32
2022-09-05T11:49:59.004Z,41.89
2022-09-05T11:50:59.074Z,40.93
2022-09-05T11:51:58.833Z,41.41
2022-09-05T11:52:58.928Z,41.73
2022-09-05T11:53:58.955Z,42.70
2022-09-05T11:54:58.915Z,43.99
2022-09-05T11:55:58.869Z,40.61
2022-09-05T11:57:20.085Z,43.02
2022-09-05T11:57:59.719Z,47.53
2022-09-05T11:58:59.745Z,45.76
2022-09-05T12:00:30.543Z,44.63
2022-09-05T12:01:43.160Z,45.76
2022-09-05T12:02:08.419Z,42.54
2022-09-05T12:03:00.729Z,40.44
2022-09-05T12:04:00.504Z,41.73
2022-09-05T12:05:49.201Z,41.09
2022-09-05T12:05:59.924Z,41.73
2022-09-05T12:06:59.478Z,43.99
2022-09-05T12:07:58.683Z,40.93
2022-09-05T12:08:58.783Z,40.93
2022-09-05T12:09:58.664Z,41.25
2022-09-05T12:10:59.223Z,40.93
2022-09-05T12:11:58.956Z,43.99
2022-09-05T12:12:58.770Z,41.73
2022-09-05T12:13:58.840Z,41.09
2022-09-05T12:14:58.759Z,40.93
2022-09-05T12:16:07.680Z,41.73
2022-09-05T12:16:59.615Z,44.47
2022-09-05T12:17:58.740Z,45.28
2022-09-05T12:19:02.794Z,43.83
2022-09-05T12:19:59.668Z,41.73
2022-09-05T12:20:58.694Z,39.96
2022-09-05T12:21:58.745Z,45.76
2022-09-05T12:22:59.727Z,43.83
2022-09-05T12:25:15.182Z,40.93
2022-09-05T12:25:26.722Z,45.28
2022-09-05T12:27:37.026Z,41.73
2022-09-05T12:27:42.269Z,44.31
2022-09-05T12:28:24.165Z,43.51
2022-09-05T12:29:32.961Z,43.34
2022-09-05T12:30:00.685Z,43.02
2022-09-05T12:31:58.845Z,39.96
2022-09-05T12:33:52.345Z,42.06
2022-09-05T12:36:03.852Z,40.61
2022-09-05T12:36:04.324Z,42.06
2022-09-05T12:36:05.574Z,41.73
2022-09-05T12:36:07.680Z,41.09
2022-09-05T12:40:15.732Z,45.76
2022-09-05T12:40:56.524Z,39.80
2022-09-05T12:41:01.085Z,41.73
2022-09-05T12:41:32.283Z,41.25
2022-09-05T12:41:36.724Z,40.93
2022-09-05T12:42:14.632Z,41.25
2022-09-05T12:44:00.687Z,40.93
2022-09-05T12:44:39.401Z,39.64
2022-09-05T12:45:00.147Z,39.80
2022-09-05T12:45:58.730Z,42.38
2022-09-05T12:46:58.535Z,40.12
2022-09-05T12:47:59.499Z,37.87
2022-09-05T12:49:01.456Z,40.44
2022-09-05T12:50:03.544Z,41.57
2022-09-05T12:50:59.408Z,38.99
2022-09-05T12:51:58.419Z,41.89
2022-09-05T12:52:58.496Z,38.03
2022-09-05T12:53:58.497Z,38.03
2022-09-05T12:54:58.491Z,37.06
2022-09-05T12:56:20.500Z,39.64
2022-09-05T12:59:55.290Z,37.06
2022-09-05T13:01:25.733Z,42.54
2022-09-05T13:02:59.269Z,49.15
2022-09-05T13:03:03.931Z,43.51
2022-09-05T13:03:06.199Z,47.86
2022-09-05T13:03:07.316Z,43.02
2022-09-05T13:03:35.897Z,39.64
2022-09-05T13:04:17.232Z,42.22
2022-09-05T13:05:01.710Z,40.93
2022-09-05T13:05:58.345Z,42.38
2022-09-05T13:06:58.403Z,38.99
2022-09-05T13:07:58.379Z,40.61
2022-09-05T13:08:59.767Z,38.35
2022-09-05T13:10:54.029Z,37.38
2022-09-05T13:14:49.836Z,37.22
2022-09-05T13:14:50.602Z,35.93
2022-09-05T13:14:52.606Z,41.09
2022-09-05T13:14:54.909Z,38.83
2022-09-05T13:15:12.322Z,34.48
2022-09-05T13:16:00.309Z,40.44
2022-09-05T13:16:58.380Z,42.54
2022-09-05T13:17:58.324Z,39.32
2022-09-05T13:18:58.366Z,38.35
2022-09-05T13:19:58.413Z,38.35
2022-09-05T13:20:58.260Z,37.54
2022-09-05T13:21:58.188Z,37.54
2022-09-05T13:22:58.188Z,37.38
2022-09-05T13:23:58.169Z,37.22
2022-09-05T13:24:58.247Z,39.80
2022-09-05T13:25:58.151Z,40.93
2022-09-05T13:26:58.146Z,38.51
2022-09-05T13:27:58.180Z,38.35
2022-09-05T13:29:10.774Z,37.54
2022-09-05T13:31:44.157Z,38.51
2022-09-05T13:37:04.842Z,36.90
2022-09-05T13:37:56.039Z,39.32
2022-09-05T13:38:02.954Z,38.99
2022-09-05T13:38:03.703Z,40.28
2022-09-05T13:38:06.159Z,40.44
2022-09-05T13:38:08.168Z,42.54
2022-09-05T13:38:17.892Z,40.44
2022-09-05T13:38:30.505Z,40.44
2022-09-05T13:39:01.047Z,41.89
2022-09-05T13:39:58.346Z,41.57
2022-09-05T13:40:58.371Z,42.22
2022-09-05T13:41:58.195Z,42.38
2022-09-05T13:42:58.194Z,42.06
2022-09-05T13:44:00.274Z,42.22
2022-09-05T13:44:59.046Z,43.99
2022-09-05T13:45:58.319Z,42.70
2022-09-05T13:46:59.071Z,41.89
2022-09-05T13:47:59.198Z,43.83
2022-09-05T13:50:02.093Z,43.67
2022-09-05T13:50:59.295Z,41.41
2022-09-05T13:51:58.000Z,41.73
2022-09-05T13:52:58.147Z,41.57
2022-09-05T13:53:58.120Z,43.51
2022-09-05T13:54:58.108Z,44.47
2022-09-05T13:56:03.029Z,42.86
2022-09-05T13:56:59.107Z,41.73
2022-09-05T13:57:58.058Z,41.41
2022-09-05T13:58:58.076Z,41.41
2022-09-05T13:59:58.084Z,42.38
2022-09-05T14:00:58.109Z,41.89
2022-09-05T14:02:25.445Z,40.61
2022-09-05T14:03:59.980Z,41.89
2022-09-05T14:05:08.269Z,41.89
2022-09-05T14:06:00.109Z,41.41
2022-09-05T14:07:44.081Z,40.77
2022-09-05T14:07:59.877Z,40.93
2022-09-05T14:09:59.978Z,40.28
2022-09-05T14:10:57.896Z,39.32
2022-09-05T14:11:57.932Z,39.96
2022-09-05T14:13:01.254Z,39.64
2022-09-05T14:13:59.029Z,38.19
2022-09-05T14:15:14.379Z,39.80
2022-09-05T14:15:59.875Z,37.38
2022-09-05T14:17:49.568Z,38.19
2022-09-05T14:17:59.235Z,37.38
2022-09-05T14:18:57.948Z,37.71
2022-09-05T14:19:58.044Z,37.71
2022-09-05T14:20:57.949Z,38.99
2022-09-05T14:21:57.939Z,36.74
2022-09-05T14:22:58.012Z,37.54
2022-09-05T14:23:57.942Z,38.19
2022-09-05T14:24:58.668Z,40.44
2022-09-05T14:25:57.931Z,40.93
2022-09-05T14:26:57.767Z,41.89
2022-09-05T14:27:57.783Z,44.15
2022-09-05T14:28:57.950Z,41.57
2022-09-05T14:29:57.761Z,43.02